createdAt,value
2022-10-22T00:01:47.569Z,15.44
2022-10-22T00:04:15.680Z,15.23
2022-10-22T00:06:45.295Z,15.31
2022-10-22T00:09:14.134Z,15.42
2022-10-22T00:11:42.885Z,15.51
2022-10-22T00:14:12.131Z,15.43
2022-10-22T00:16:40.155Z,15.51
2022-10-22T00:19:09.432Z,15.55
2022-10-22T00:21:37.488Z,15.58
2022-10-22T00:24:05.653Z,15.54
2022-10-22T00:26:34.262Z,15.56
2022-10-22T00:29:11.206Z,15.63
2022-10-22T00:31:38.923Z,15.42
2022-10-22T00:34:06.608Z,15.34
2022-10-22T00:36:34.348Z,15.48
2022-10-22T00:39:02.114Z,15.41
2022-10-22T00:41:29.926Z,15.36
2022-10-22T00:44:03.576Z,15.40
2022-10-22T00:46:31.541Z,15.43
2022-10-22T00:49:02.450Z,15.47
2022-10-22T00:51:33.990Z,15.50
2022-10-22T00:54:07.064Z,15.53
2022-10-22T00:56:34.840Z,15.57
2022-10-22T00:59:03.879Z,15.52
2022-10-22T01:01:32.305Z,15.50
2022-10-22T01:04:00.256Z,15.75
2022-10-22T01:06:33.500Z,15.55
2022-10-22T01:09:07.281Z,15.68
2022-10-22T01:11:43.824Z,15.77
2022-10-22T01:14:32.745Z,15.76
2022-10-22T01:17:22.521Z,15.81
2022-10-22T01:20:08.767Z,15.82
2022-10-22T01:22:36.506Z,15.84
2022-10-22T01:25:19.861Z,15.99
2022-10-22T01:28:06.333Z,15.83
2022-10-22T01:30:37.588Z,15.76
2022-10-22T01:33:09.313Z,15.87
2022-10-22T01:35:40.050Z,15.92
2022-10-22T01:38:12.446Z,15.74
2022-10-22T01:40:41.729Z,15.87
2022-10-22T01:43:11.647Z,15.87
2022-10-22T01:45:47.126Z,15.64
2022-10-22T01:48:43.375Z,15.70
2022-10-22T01:51:27.936Z,15.73
2022-10-22T01:54:01.815Z,15.66
2022-10-22T01:57:08.197Z,15.49
2022-10-22T01:59:45.893Z,15.41
2022-10-22T02:02:23.876Z,15.46
2022-10-22T02:05:03.112Z,15.42
2022-10-22T02:07:44.754Z,15.46
2022-10-22T02:10:14.133Z,15.60
2022-10-22T02:12:45.989Z,15.51
2022-10-22T02:15:16.068Z,15.62
2022-10-22T02:17:46.665Z,15.66
2022-10-22T02:20:28.433Z,15.48
2022-10-22T02:22:57.330Z,15.45
2022-10-22T02:25:28.663Z,15.58
2022-10-22T02:28:19.750Z,15.64
2022-10-22T02:30:54.910Z,15.53
2022-10-22T02:33:28.531Z,15.60
2022-10-22T02:35:59.091Z,15.70
2022-10-22T02:38:28.386Z,15.72
2022-10-22T02:40:56.467Z,15.67
2022-10-22T02:43:25.494Z,15.84
2022-10-22T02:45:53.264Z,15.86
2022-10-22T02:50:53.656Z,15.83
2022-10-22T02:53:22.652Z,15.83
2022-10-22T02:55:50.322Z,15.90
2022-10-22T02:58:18.147Z,15.71
2022-10-22T03:00:45.902Z,15.67
2022-10-22T03:03:13.600Z,15.93
2022-10-22T03:05:41.503Z,16.02
2022-10-22T03:08:09.262Z,16.13
2022-10-22T03:10:37.012Z,16.23
2022-10-22T03:13:05.052Z,16.34
2022-10-22T03:15:33.004Z,16.39
2022-10-22T03:18:01.128Z,16.45
2022-10-22T03:20:28.886Z,16.48
2022-10-22T03:22:57.563Z,16.46
2022-10-22T03:25:26.968Z,16.56
2022-10-22T03:27:56.941Z,16.44
2022-10-22T03:30:24.718Z,16.21
2022-10-22T03:32:55.251Z,16.07
2022-10-22T03:35:23.339Z,15.91
2022-10-22T03:37:51.392Z,15.77
2022-10-22T03:40:19.861Z,15.60
2022-10-22T03:42:47.855Z,15.69
2022-10-22T03:45:15.666Z,15.87
2022-10-22T03:47:43.584Z,15.92
2022-10-22T03:50:11.568Z,15.78
2022-10-22T03:52:40.339Z,15.72
2022-10-22T03:55:10.006Z,15.72
2022-10-22T03:57:38.469Z,15.81
2022-10-22T04:00:07.946Z,15.78
2022-10-22T04:02:35.823Z,16.02
2022-10-22T04:05:03.744Z,15.96
2022-10-22T04:07:31.753Z,15.85
2022-10-22T04:09:59.670Z,15.91
2022-10-22T04:12:28.133Z,15.99
2022-10-22T04:14:56.135Z,16.14
2022-10-22T04:17:23.871Z,16.17
2022-10-22T04:19:51.577Z,16.27
2022-10-22T04:22:19.303Z,16.37
2022-10-22T04:24:47.041Z,16.48
2022-10-22T04:27:14.994Z,16.54
2022-10-22T04:29:43.228Z,16.65
2022-10-22T04:32:11.129Z,16.54
2022-10-22T04:34:39.376Z,16.65
2022-10-22T04:37:07.770Z,16.69
2022-10-22T04:39:36.233Z,16.61
2022-10-22T04:42:06.354Z,16.64
2022-10-22T04:44:35.383Z,16.62
2022-10-22T04:47:04.561Z,16.62
2022-10-22T04:49:34.289Z,16.69
2022-10-22T04:52:02.171Z,16.61
2022-10-22T04:54:32.960Z,16.55
2022-10-22T04:57:01.979Z,16.57
2022-10-22T04:59:29.831Z,16.65
2022-10-22T05:01:59.458Z,16.65
2022-10-22T05:04:27.861Z,16.73
2022-10-22T05:06:55.796Z,16.64
2022-10-22T05:09:23.605Z,16.56
2022-10-22T05:11:52.972Z,16.62
2022-10-22T05:14:25.970Z,16.75
2022-10-22T05:16:54.488Z,16.81
2022-10-22T05:19:25.375Z,16.76
2022-10-22T05:21:55.282Z,16.65
2022-10-22T05:24:23.411Z,16.64
2022-10-22T05:26:56.533Z,16.68
2022-10-22T05:29:25.902Z,16.75
2022-10-22T05:31:54.101Z,16.65
2022-10-22T05:34:22.277Z,16.87
2022-10-22T05:36:51.205Z,16.98
2022-10-22T05:39:20.072Z,16.97
2022-10-22T05:41:48.534Z,16.99
2022-10-22T05:44:16.353Z,17.01
2022-10-22T05:46:44.179Z,17.00
2022-10-22T05:49:14.563Z,16.93
2022-10-22T05:51:42.627Z,16.99
2022-10-22T05:54:17.465Z,16.90
2022-10-22T05:56:46.261Z,17.07
2022-10-22T05:59:14.638Z,17.21
2022-10-22T06:01:44.905Z,17.33
2022-10-22T06:04:14.154Z,17.36
2022-10-22T06:06:48.932Z,17.11
2022-10-22T06:09:29.559Z,16.96
2022-10-22T06:12:00.461Z,17.00
2022-10-22T06:14:29.868Z,16.81
2022-10-22T06:17:00.188Z,16.62
2022-10-22T06:19:30.071Z,16.49
2022-10-22T06:21:58.931Z,16.39
2022-10-22T06:24:27.079Z,16.42
2022-10-22T06:26:55.164Z,16.46
2022-10-22T06:29:23.167Z,16.38
2022-10-22T06:31:52.251Z,16.51
2022-10-22T06:34:21.797Z,16.61
2022-10-22T06:36:51.923Z,16.73
2022-10-22T06:39:21.745Z,16.72
2022-10-22T06:41:50.768Z,16.66
2022-10-22T06:44:21.142Z,16.58
2022-10-22T06:46:53.162Z,16.58
2022-10-22T06:49:21.631Z,16.61
2022-10-22T06:51:53.902Z,16.58
2022-10-22T06:54:24.014Z,16.65
2022-10-22T06:56:53.069Z,16.66
2022-10-22T06:59:22.324Z,16.68
2022-10-22T07:01:53.645Z,16.74
2022-10-22T07:04:22.653Z,16.79
2022-10-22T07:06:51.648Z,16.73
2022-10-22T07:09:20.289Z,16.82
2022-10-22T07:11:48.648Z,16.78
2022-10-22T07:14:16.922Z,16.89
2022-10-22T07:16:47.084Z,16.91
2022-10-22T07:19:16.097Z,16.90
2022-10-22T07:21:45.100Z,16.97
2022-10-22T07:24:13.011Z,16.88
2022-10-22T07:26:41.021Z,16.74
2022-10-22T07:29:10.207Z,16.81
2022-10-22T07:31:38.963Z,16.83
2022-10-22T07:34:07.646Z,16.70
2022-10-22T07:36:35.893Z,16.77
2022-10-22T07:39:04.552Z,16.84
2022-10-22T07:41:32.758Z,16.78
2022-10-22T07:44:00.871Z,17.02
2022-10-22T07:46:29.563Z,17.08
2022-10-22T07:48:57.337Z,17.01
2022-10-22T07:51:26.002Z,17.07
2022-10-22T07:53:54.369Z,17.09
2022-10-22T07:56:23.481Z,17.32
2022-10-22T07:58:51.635Z,17.24
2022-10-22T08:01:19.742Z,17.22
2022-10-22T08:03:48.941Z,17.38
2022-10-22T08:06:17.893Z,17.63
2022-10-22T08:08:46.675Z,17.81
2022-10-22T08:11:15.976Z,17.97
2022-10-22T08:13:45.906Z,18.00
2022-10-22T08:16:15.753Z,18.13
2022-10-22T08:18:44.746Z,18.28
2022-10-22T08:21:13.852Z,18.37
2022-10-22T08:23:43.413Z,18.48
2022-10-22T08:26:11.812Z,18.55
2022-10-22T08:28:40.086Z,18.68
2022-10-22T08:31:10.420Z,18.70
2022-10-22T08:33:39.158Z,18.72
2022-10-22T08:36:08.247Z,18.57
2022-10-22T08:38:36.529Z,18.47
2022-10-22T08:41:20.348Z,18.50
2022-10-22T08:43:54.849Z,18.39
2022-10-22T08:46:45.126Z,18.18
2022-10-22T08:49:21.145Z,18.20
2022-10-22T08:51:51.394Z,18.51
2022-10-22T08:54:32.474Z,18.54
2022-10-22T08:57:09.858Z,18.55
2022-10-22T08:59:53.181Z,18.85
2022-10-22T09:02:45.473Z,18.98
2022-10-22T09:05:22.152Z,18.96
2022-10-22T09:07:50.780Z,18.88
2022-10-22T09:10:24.654Z,18.65
2022-10-22T09:12:52.691Z,18.67
2022-10-22T09:15:21.314Z,18.64
2022-10-22T09:17:52.189Z,18.64
2022-10-22T09:20:36.270Z,18.64
2022-10-22T09:23:19.701Z,18.70
2022-10-22T09:25:49.299Z,18.45
2022-10-22T09:28:17.313Z,18.48
2022-10-22T09:30:45.797Z,18.45
2022-10-22T09:33:24.843Z,18.44
2022-10-22T09:35:57.309Z,18.38
2022-10-22T09:38:31.105Z,18.30
2022-10-22T09:41:03.966Z,18.29
2022-10-22T09:43:34.326Z,18.39
2022-10-22T09:46:06.831Z,18.25
2022-10-22T09:48:41.647Z,18.07
2022-10-22T09:51:37.811Z,18.05
2022-10-22T09:54:16.643Z,17.93
2022-10-22T09:56:51.567Z,17.88
2022-10-22T09:59:27.413Z,17.94
2022-10-22T10:02:13.655Z,17.93
2022-10-22T10:04:55.423Z,17.89
2022-10-22T10:07:30.302Z,17.97
2022-10-22T10:09:58.828Z,18.02
2022-10-22T10:12:56.235Z,18.20
2022-10-22T10:15:55.091Z,18.18
2022-10-22T10:18:37.028Z,18.11
2022-10-22T10:21:47.423Z,18.05
2022-10-22T10:24:54.177Z,18.19
2022-10-22T10:27:46.658Z,18.37
2022-10-22T10:30:21.653Z,18.20
2022-10-22T10:33:18.586Z,18.15
2022-10-22T10:36:02.643Z,18.25
2022-10-22T10:38:57.328Z,18.53
2022-10-22T10:41:39.844Z,18.45
2022-10-22T10:44:27.433Z,18.48
2022-10-22T10:47:11.960Z,18.54
2022-10-22T10:49:43.469Z,18.74
2022-10-22T10:52:30.619Z,18.79
2022-10-22T10:55:21.926Z,18.92
2022-10-22T10:58:06.650Z,18.93
2022-10-22T11:00:45.291Z,19.03
2022-10-22T11:03:23.378Z,19.13
2022-10-22T11:06:04.977Z,19.09
2022-10-22T11:08:39.083Z,19.03
2022-10-22T11:11:21.648Z,19.13
2022-10-22T11:13:56.729Z,19.19
2022-10-22T11:16:45.467Z,19.14
2022-10-22T11:19:23.006Z,19.08
2022-10-22T11:22:26.623Z,19.06
2022-10-22T11:25:03.320Z,19.00
2022-10-22T11:27:53.748Z,19.02
2022-10-22T11:30:24.195Z,18.90
2022-10-22T11:32:55.381Z,18.64
2022-10-22T11:35:47.062Z,18.37
2022-10-22T11:38:18.798Z,18.26
2022-10-22T11:40:54.969Z,18.35
2022-10-22T11:43:28.347Z,18.57
2022-10-22T11:46:19.915Z,18.43
2022-10-22T11:49:19.713Z,18.36
2022-10-22T11:51:48.606Z,18.18
2022-10-22T11:54:30.718Z,18.10
2022-10-22T11:57:29.837Z,18.16
2022-10-22T12:00:01.524Z,18.24
2022-10-22T12:02:45.306Z,18.12
2022-10-22T12:05:22.988Z,18.16
2022-10-22T12:08:00.470Z,18.15
2022-10-22T12:10:49.773Z,18.24
2022-10-22T12:13:28.008Z,18.24
2022-10-22T12:16:00.270Z,18.18
2022-10-22T12:18:46.715Z,18.31
2022-10-22T12:21:22.127Z,18.11
2022-10-22T12:24:00.405Z,18.08
2022-10-22T12:26:40.421Z,17.92
2022-10-22T12:29:22.065Z,18.00
2022-10-22T12:31:58.989Z,17.84
2022-10-22T12:34:36.297Z,17.80
2022-10-22T12:37:15.406Z,17.96
2022-10-22T12:39:54.534Z,17.98
2022-10-22T12:42:31.606Z,17.83
2022-10-22T12:45:08.086Z,17.59
2022-10-22T12:47:43.084Z,17.61
2022-10-22T12:50:25.863Z,17.55
2022-10-22T12:53:01.597Z,17.68
2022-10-22T12:55:42.004Z,17.47
2022-10-22T12:58:27.281Z,17.46
2022-10-22T13:01:06.602Z,17.38
2022-10-22T13:03:47.479Z,17.31
2022-10-22T13:06:24.001Z,17.29
2022-10-22T13:09:05.307Z,17.23
2022-10-22T13:12:02.856Z,17.33
2022-10-22T13:14:45.007Z,17.30
2022-10-22T13:17:29.445Z,17.21
2022-10-22T13:20:27.817Z,17.21
2022-10-22T13:23:09.128Z,17.26
2022-10-22T13:25:47.343Z,17.27
2022-10-22T13:28:27.177Z,17.29
2022-10-22T13:31:12.734Z,17.33
2022-10-22T13:33:54.335Z,17.30
2022-10-22T13:36:29.772Z,17.36
2022-10-22T13:39:11.680Z,17.33
2022-10-22T13:41:53.131Z,17.48
2022-10-22T13:44:36.060Z,17.61
2022-10-22T13:47:40.239Z,17.77
2022-10-22T13:50:27.166Z,17.87
2022-10-22T13:53:14.516Z,17.94
2022-10-22T13:55:55.657Z,17.98
2022-10-22T13:58:38.096Z,18.08
2022-10-22T14:01:26.428Z,18.12
2022-10-22T14:04:06.802Z,18.00
2022-10-22T14:06:45.163Z,17.84
2022-10-22T14:09:26.284Z,17.87
2022-10-22T14:12:07.289Z,17.99
2022-10-22T14:14:43.414Z,17.95
2022-10-22T14:17:22.852Z,17.83
2022-10-22T14:19:58.879Z,17.81
2022-10-22T14:22:35.299Z,17.82
2022-10-22T14:25:18.152Z,17.87
2022-10-22T14:27:54.610Z,17.95
2022-10-22T14:30:42.809Z,18.00
2022-10-22T14:33:34.747Z,17.94
2022-10-22T14:36:19.870Z,17.92
2022-10-22T14:38:54.073Z,17.91
2022-10-22T14:41:43.538Z,17.83
2022-10-22T14:44:27.981Z,17.84
2022-10-22T14:47:09.354Z,17.96
2022-10-22T14:49:45.706Z,18.12
2022-10-22T14:52:23.023Z,18.15
2022-10-22T14:55:07.218Z,18.13
2022-10-22T14:57:50.093Z,18.10
2022-10-22T15:00:28.367Z,17.99
2022-10-22T15:03:06.552Z,18.10
2022-10-22T15:05:48.977Z,18.22
2022-10-22T15:08:28.733Z,18.04
2022-10-22T15:11:05.759Z,18.00
2022-10-22T15:13:43.693Z,18.08
2022-10-22T15:16:20.564Z,18.09
2022-10-22T15:18:58.221Z,17.92
2022-10-22T15:21:35.253Z,18.04
2022-10-22T15:24:14.537Z,18.23
2022-10-22T15:26:50.390Z,18.22
2022-10-22T15:29:26.418Z,18.17
2022-10-22T15:32:03.039Z,18.38
2022-10-22T15:34:37.308Z,18.30
2022-10-22T15:37:17.582Z,18.19
2022-10-22T15:39:53.731Z,18.20
2022-10-22T15:44:05.660Z,18.25
2022-10-22T15:46:42.573Z,18.01
2022-10-22T15:49:20.792Z,17.94
2022-10-22T15:52:00.866Z,17.95
2022-10-22T15:54:43.286Z,17.83
2022-10-22T15:57:24.568Z,17.83
2022-10-22T16:00:10.553Z,17.87
2022-10-22T16:02:52.916Z,17.82
2022-10-22T16:05:31.481Z,17.83
2022-10-22T16:08:15.850Z,17.99
2022-10-22T16:10:57.849Z,17.91
2022-10-22T16:13:40.348Z,17.94
2022-10-22T16:16:20.758Z,18.05
2022-10-22T16:19:02.779Z,18.22
2022-10-22T16:21:40.221Z,18.26
2022-10-22T16:24:20.159Z,18.17
2022-10-22T16:27:05.227Z,18.20
2022-10-22T16:29:54.270Z,18.32
2022-10-22T16:32:43.868Z,18.27
2022-10-22T16:35:25.184Z,18.29
2022-10-22T16:38:04.143Z,18.33
2022-10-22T16:40:49.496Z,18.47
2022-10-22T16:43:39.083Z,18.49
2022-10-22T16:46:29.565Z,18.56
2022-10-22T16:49:24.797Z,18.51
2022-10-22T16:52:21.016Z,18.52
2022-10-22T16:55:09.632Z,18.55
2022-10-22T16:57:52.131Z,18.46
2022-10-22T17:00:32.793Z,18.36
2022-10-22T17:03:19.580Z,18.32
2022-10-22T17:05:58.531Z,18.30
2022-10-22T17:08:44.512Z,18.22
2022-10-22T17:11:26.445Z,18.28
2022-10-22T17:14:06.943Z,18.35
2022-10-22T17:16:57.157Z,18.41
2022-10-22T17:19:41.744Z,18.31
2022-10-22T17:22:24.879Z,18.28
2022-10-22T17:25:28.726Z,18.09
2022-10-22T17:28:13.234Z,17.96
2022-10-22T17:31:00.951Z,17.85
2022-10-22T17:33:40.375Z,17.85
2022-10-22T17:36:18.558Z,17.75
2022-10-22T17:39:04.171Z,17.85
2022-10-22T17:41:48.992Z,17.78
2022-10-22T17:44:36.620Z,17.75
2022-10-22T17:47:19.428Z,17.78
2022-10-22T17:49:58.181Z,17.88
2022-10-22T17:52:35.048Z,17.87
2022-10-22T17:55:14.717Z,17.88
2022-10-22T17:57:57.152Z,17.84
2022-10-22T18:00:38.636Z,17.94
2022-10-22T18:03:22.142Z,17.88
2022-10-22T18:06:09.852Z,17.86
2022-10-22T18:08:50.985Z,17.97
2022-10-22T18:11:29.713Z,17.96
2022-10-22T18:14:08.322Z,18.04
2022-10-22T18:16:48.881Z,18.12
2022-10-22T18:19:56.644Z,17.90
2022-10-22T18:22:52.048Z,18.09
2022-10-22T18:25:33.289Z,18.07
2022-10-22T18:28:24.760Z,18.19
2022-10-22T18:31:02.307Z,18.33
2022-10-22T18:33:46.275Z,18.35
2022-10-22T18:36:30.590Z,18.33
2022-10-22T18:39:22.437Z,18.36
2022-10-22T18:46:49.396Z,18.24
2022-10-22T18:49:36.517Z,18.25
2022-10-22T18:52:18.083Z,18.33
2022-10-22T18:54:56.101Z,18.20
2022-10-22T18:57:36.665Z,18.27
2022-10-22T19:00:22.257Z,18.31
2022-10-22T19:03:01.270Z,18.28
2022-10-22T19:05:42.656Z,18.32
2022-10-22T19:08:25.197Z,18.38
2022-10-22T19:11:05.262Z,18.44
2022-10-22T19:13:49.255Z,18.20
2022-10-22T19:16:30.679Z,18.15
2022-10-22T19:19:09.613Z,18.16
2022-10-22T19:21:47.187Z,18.09
2022-10-22T19:24:27.333Z,18.05
2022-10-22T19:27:08.308Z,18.17
2022-10-22T19:29:46.707Z,18.05
2022-10-22T19:32:31.213Z,17.97
2022-10-22T19:35:25.661Z,17.86
2022-10-22T19:42:16.377Z,17.58
2022-10-22T19:45:04.732Z,17.49
2022-10-22T19:47:42.019Z,17.54
2022-10-22T19:50:23.408Z,17.55
2022-10-22T19:56:34.402Z,17.63
2022-10-22T19:59:10.766Z,17.64
2022-10-22T20:01:52.139Z,17.62
2022-10-22T20:04:33.356Z,17.63
2022-10-22T20:07:08.251Z,17.55
2022-10-22T20:09:54.950Z,17.58
2022-10-22T20:12:29.497Z,17.58
2022-10-22T20:15:06.165Z,17.59
2022-10-22T20:17:46.530Z,17.52
2022-10-22T20:20:26.339Z,17.43
2022-10-22T20:23:03.865Z,17.46
2022-10-22T20:25:39.892Z,17.42
2022-10-22T20:28:15.061Z,17.45
2022-10-22T20:30:52.653Z,17.54
2022-10-22T20:33:30.832Z,17.47
2022-10-22T20:36:15.138Z,17.45
2022-10-22T20:38:54.348Z,17.45
2022-10-22T20:41:33.647Z,17.46
2022-10-22T20:44:08.929Z,17.48
2022-10-22T20:46:43.189Z,17.54
2022-10-22T20:49:24.117Z,17.55
2022-10-22T20:52:04.474Z,17.29
2022-10-22T20:54:46.691Z,17.24
2022-10-22T20:57:27.971Z,17.18
2022-10-22T21:00:12.320Z,17.26
2022-10-22T21:02:51.757Z,17.26
2022-10-22T21:05:29.899Z,17.10
2022-10-22T21:08:10.858Z,17.03
2022-10-22T21:10:47.610Z,16.99
2022-10-22T21:13:25.512Z,16.98
2022-10-22T21:16:15.019Z,17.08
2022-10-22T21:18:53.222Z,17.11
2022-10-22T21:21:29.355Z,17.22
2022-10-22T21:24:07.573Z,17.35
2022-10-22T21:26:50.984Z,17.45
2022-10-22T21:29:33.212Z,17.56
2022-10-22T21:32:13.187Z,17.63
2022-10-22T21:34:48.089Z,17.67
2022-10-22T21:37:27.827Z,17.69
2022-10-22T21:40:07.274Z,17.76
2022-10-22T21:42:51.770Z,17.80
2022-10-22T21:45:31.055Z,17.82
2022-10-22T21:48:12.993Z,17.70
2022-10-22T21:50:55.151Z,17.78
2022-10-22T21:53:30.342Z,17.91
2022-10-22T21:56:07.589Z,17.99
2022-10-22T21:58:49.775Z,18.00
2022-10-22T22:01:27.797Z,18.02
2022-10-22T22:04:05.277Z,18.04
2022-10-22T22:06:46.580Z,18.12
2022-10-22T22:09:30.914Z,18.13
2022-10-22T22:12:08.130Z,18.03
2022-10-22T22:14:51.633Z,18.00
2022-10-22T22:17:32.910Z,17.92
2022-10-22T22:20:20.956Z,17.98
2022-10-22T22:23:04.048Z,17.98
2022-10-22T22:25:40.446Z,17.94
2022-10-22T22:28:19.877Z,17.86
2022-10-22T22:31:00.241Z,17.76
2022-10-22T22:33:46.460Z,17.72
2022-10-22T22:36:26.179Z,17.81
2022-10-22T22:39:05.883Z,17.67
2022-10-22T22:41:44.124Z,17.67
2022-10-22T22:44:23.880Z,17.66
2022-10-22T22:46:58.421Z,17.75
2022-10-22T22:49:39.680Z,17.78
2022-10-22T22:52:15.768Z,17.81
2022-10-22T22:54:48.855Z,17.57
2022-10-22T22:57:27.248Z,17.80
2022-10-22T23:00:02.688Z,18.04
2022-10-22T23:02:45.856Z,17.94
2022-10-22T23:05:24.864Z,17.99
2022-10-22T23:08:02.239Z,17.93
2022-10-22T23:10:38.293Z,18.12
2022-10-22T23:13:14.655Z,17.93
2022-10-22T23:15:49.795Z,17.85
2022-10-22T23:18:24.930Z,17.88
2022-10-22T23:21:07.133Z,17.71
2022-10-22T23:23:50.598Z,17.74
2022-10-22T23:26:39.834Z,17.76
2022-10-22T23:29:20.209Z,17.96
2022-10-22T23:32:03.319Z,18.07
2022-10-22T23:34:38.447Z,18.06
2022-10-22T23:37:18.812Z,18.13
2022-10-22T23:40:00.411Z,18.14
2022-10-22T23:42:36.152Z,18.02
2022-10-22T23:45:14.363Z,17.92
2022-10-22T23:47:51.650Z,17.88
2022-10-22T23:50:28.945Z,17.74
2022-10-22T23:53:04.984Z,17.56
2022-10-22T23:55:45.666Z,17.47
2022-10-22T23:58:26.949Z,17.43
